sensor_id;sensor_type;location;lat;lon;timestamp;P1;durP1;ratioP1;P2;durP2;ratioP2
3771;SDS011;1901;48.172;12.824;2024-03-08T00:02:23;19.08;;;7.97;;
3771;SDS011;1901;48.172;12.824;2024-03-08T00:04:48;20.13;;;7.80;;
3771;SDS011;1901;48.172;12.824;2024-03-08T00:07:13;18.93;;;7.97;;
3771;SDS011;1901;48.172;12.824;2024-03-08T00:09:38;20.07;;;8.10;;
3771;SDS011;1901;48.172;12.824;2024-03-08T00:12:03;20.37;;;7.70;;
3771;SDS011;1901;48.172;12.824;2024-03-08T00:14:28;20.57;;;7.97;;
3771;SDS011;1901;48.172;12.824;2024-03-08T00:16:54;20.38;;;7.90;;
3771;SDS011;1901;48.172;12.824;2024-03-08T00:19:19;20.67;;;8.15;;
3771;SDS011;1901;48.172;12.824;2024-03-08T00:21:44;17.13;;;6.87;;
3771;SDS011;1901;48.172;12.824;2024-03-08T00:24:10;21.17;;;7.78;;
3771;SDS011;1901;48.172;12.824;2024-03-08T00:26:35;19.95;;;8.50;;
3771;SDS011;1901;48.172;12.824;2024-03-08T00:29:00;21.93;;;8.70;;
3771;SDS011;1901;48.172;12.824;2024-03-08T00:31:25;17.55;;;7.07;;
3771;SDS011;1901;48.172;12.824;2024-03-08T00:33:50;18.00;;;7.33;;
3771;SDS011;1901;48.172;12.824;2024-03-08T00:36:17;25.02;;;8.75;;
3771;SDS011;1901;48.172;12.824;2024-03-08T00:38:42;19.25;;;7.20;;
3771;SDS011;1901;48.172;12.824;2024-03-08T00:41:07;22.58;;;8.25;;
3771;SDS011;1901;48.172;12.824;2024-03-08T00:43:32;13.23;;;6.13;;
3771;SDS011;1901;48.172;12.824;2024-03-08T00:45:58;22.17;;;8.15;;
3771;SDS011;1901;48.172;12.824;2024-03-08T00:48:23;12.43;;;6.35;;
3771;SDS011;1901;48.172;12.824;2024-03-08T00:50:48;15.95;;;7.82;;
3771;SDS011;1901;48.172;12.824;2024-03-08T00:53:13;22.45;;;8.48;;
3771;SDS011;1901;48.172;12.824;2024-03-08T00:55:38;12.33;;;5.90;;
3771;SDS011;1901;48.172;12.824;2024-03-08T00:58:04;21.13;;;7.47;;
3771;SDS011;1901;48.172;12.824;2024-03-08T01:00:29;23.50;;;8.98;;
3771;SDS011;1901;48.172;12.824;2024-03-08T01:02:54;17.20;;;8.57;;
3771;SDS011;1901;48.172;12.824;2024-03-08T01:05:19;18.33;;;7.37;;
3771;SDS011;1901;48.172;12.824;2024-03-08T01:07:44;18.60;;;8.27;;
3771;SDS011;1901;48.172;12.824;2024-03-08T01:10:11;22.15;;;9.30;;
3771;SDS011;1901;48.172;12.824;2024-03-08T01:12:36;20.30;;;9.30;;
3771;SDS011;1901;48.172;12.824;2024-03-08T01:15:01;14.83;;;6.53;;
3771;SDS011;1901;48.172;12.824;2024-03-08T01:17:27;19.90;;;8.43;;
3771;SDS011;1901;48.172;12.824;2024-03-08T01:19:52;19.77;;;8.35;;
3771;SDS011;1901;48.172;12.824;2024-03-08T01:22:18;16.75;;;7.50;;
3771;SDS011;1901;48.172;12.824;2024-03-08T01:24:43;22.67;;;8.73;;
3771;SDS011;1901;48.172;12.824;2024-03-08T01:27:08;14.80;;;6.68;;
3771;SDS011;1901;48.172;12.824;2024-03-08T01:29:34;25.80;;;9.00;;
3771;SDS011;1901;48.172;12.824;2024-03-08T01:31:59;18.50;;;8.40;;
3771;SDS011;1901;48.172;12.824;2024-03-08T01:34:26;20.48;;;8.27;;
3771;SDS011;1901;48.172;12.824;2024-03-08T01:36:53;18.85;;;7.85;;
3771;SDS011;1901;48.172;12.824;2024-03-08T01:39:18;20.85;;;9.50;;
3771;SDS011;1901;48.172;12.824;2024-03-08T01:41:43;24.05;;;8.95;;
3771;SDS011;1901;48.172;12.824;2024-03-08T01:44:09;20.77;;;8.85;;
3771;SDS011;1901;48.172;12.824;2024-03-08T01:46:34;22.52;;;8.95;;
3771;SDS011;1901;48.172;12.824;2024-03-08T01:48:59;21.02;;;8.18;;
3771;SDS011;1901;48.172;12.824;2024-03-08T01:51:28;20.88;;;7.70;;
3771;SDS011;1901;48.172;12.824;2024-03-08T01:53:54;21.17;;;8.90;;
3771;SDS011;1901;48.172;12.824;2024-03-08T01:56:19;20.00;;;9.18;;
3771;SDS011;1901;48.172;12.824;2024-03-08T01:58:45;34.13;;;10.80;;
3771;SDS011;1901;48.172;12.824;2024-03-08T02:01:12;19.35;;;6.72;;
3771;SDS011;1901;48.172;12.824;2024-03-08T02:03:39;30.92;;;10.60;;
3771;SDS011;1901;48.172;12.824;2024-03-08T02:06:05;21.38;;;8.73;;
3771;SDS011;1901;48.172;12.824;2024-03-08T02:08:33;23.85;;;9.02;;
3771;SDS011;1901;48.172;12.824;2024-03-08T02:10:59;29.23;;;11.77;;
3771;SDS011;1901;48.172;12.824;2024-03-08T02:13:24;22.20;;;8.97;;
3771;SDS011;1901;48.172;12.824;2024-03-08T02:15:53;23.67;;;10.15;;
3771;SDS011;1901;48.172;12.824;2024-03-08T02:18:19;25.35;;;10.07;;
3771;SDS011;1901;48.172;12.824;2024-03-08T02:20:45;34.85;;;11.32;;
3771;SDS011;1901;48.172;12.824;2024-03-08T02:23:12;23.42;;;9.38;;
3771;SDS011;1901;48.172;12.824;2024-03-08T02:25:38;25.13;;;11.85;;
3771;SDS011;1901;48.172;12.824;2024-03-08T02:28:04;33.53;;;12.18;;
3771;SDS011;1901;48.172;12.824;2024-03-08T02:30:29;27.08;;;9.98;;
3771;SDS011;1901;48.172;12.824;2024-03-08T02:32:54;29.20;;;11.10;;
3771;SDS011;1901;48.172;12.824;2024-03-08T02:35:20;31.40;;;11.35;;
3771;SDS011;1901;48.172;12.824;2024-03-08T02:37:45;20.20;;;9.43;;
3771;SDS011;1901;48.172;12.824;2024-03-08T02:40:12;30.98;;;12.27;;
3771;SDS011;1901;48.172;12.824;2024-03-08T02:42:37;19.33;;;8.40;;
3771;SDS011;1901;48.172;12.824;2024-03-08T02:45:03;28.63;;;10.45;;
3771;SDS011;1901;48.172;12.824;2024-03-08T02:47:30;21.83;;;10.25;;
3771;SDS011;1901;48.172;12.824;2024-03-08T02:49:56;37.70;;;13.43;;
3771;SDS011;1901;48.172;12.824;2024-03-08T02:52:21;37.03;;;11.90;;
3771;SDS011;1901;48.172;12.824;2024-03-08T02:54:46;32.20;;;11.75;;
3771;SDS011;1901;48.172;12.824;2024-03-08T02:57:12;42.58;;;14.13;;
3771;SDS011;1901;48.172;12.824;2024-03-08T02:59:39;33.47;;;12.85;;
3771;SDS011;1901;48.172;12.824;2024-03-08T03:02:05;30.17;;;11.50;;
3771;SDS011;1901;48.172;12.824;2024-03-08T03:04:31;38.33;;;13.30;;
3771;SDS011;1901;48.172;12.824;2024-03-08T03:06:56;24.73;;;9.20;;
3771;SDS011;1901;48.172;12.824;2024-03-08T03:09:21;38.55;;;14.27;;
3771;SDS011;1901;48.172;12.824;2024-03-08T03:11:48;39.40;;;14.80;;
3771;SDS011;1901;48.172;12.824;2024-03-08T03:14:14;42.03;;;14.25;;
3771;SDS011;1901;48.172;12.824;2024-03-08T03:16:39;31.27;;;12.45;;
3771;SDS011;1901;48.172;12.824;2024-03-08T03:19:04;31.08;;;12.45;;
3771;SDS011;1901;48.172;12.824;2024-03-08T03:21:30;39.75;;;12.18;;
3771;SDS011;1901;48.172;12.824;2024-03-08T03:23:56;44.47;;;13.07;;
3771;SDS011;1901;48.172;12.824;2024-03-08T03:26:21;43.03;;;13.32;;
3771;SDS011;1901;48.172;12.824;2024-03-08T03:28:47;46.70;;;17.07;;
3771;SDS011;1901;48.172;12.824;2024-03-08T03:31:13;41.33;;;13.90;;
3771;SDS011;1901;48.172;12.824;2024-03-08T03:33:39;37.30;;;13.93;;
3771;SDS011;1901;48.172;12.824;2024-03-08T03:36:05;44.67;;;15.13;;
3771;SDS011;1901;48.172;12.824;2024-03-08T03:38:30;35.70;;;12.98;;
3771;SDS011;1901;48.172;12.824;2024-03-08T03:40:55;40.00;;;13.33;;
3771;SDS011;1901;48.172;12.824;2024-03-08T03:43:22;35.83;;;12.23;;
3771;SDS011;1901;48.172;12.824;2024-03-08T03:45:47;41.67;;;13.85;;
3771;SDS011;1901;48.172;12.824;2024-03-08T03:48:13;44.75;;;15.48;;
3771;SDS011;1901;48.172;12.824;2024-03-08T03:50:38;41.60;;;14.20;;
3771;SDS011;1901;48.172;12.824;2024-03-08T03:53:04;33.87;;;14.63;;
3771;SDS011;1901;48.172;12.824;2024-03-08T03:55:29;42.58;;;14.65;;
3771;SDS011;1901;48.172;12.824;2024-03-08T03:57:54;34.63;;;12.47;;
3771;SDS011;1901;48.172;12.824;2024-03-08T04:00:20;35.13;;;12.30;;
3771;SDS011;1901;48.172;12.824;2024-03-08T04:02:45;45.80;;;16.35;;
3771;SDS011;1901;48.172;12.824;2024-03-08T04:05:11;42.97;;;16.75;;
3771;SDS011;1901;48.172;12.824;2024-03-08T04:07:37;37.08;;;16.35;;
3771;SDS011;1901;48.172;12.824;2024-03-08T04:10:02;46.42;;;15.45;;
3771;SDS011;1901;48.172;12.824;2024-03-08T04:12:28;29.55;;;12.30;;
3771;SDS011;1901;48.172;12.824;2024-03-08T04:14:54;38.20;;;13.27;;
3771;SDS011;1901;48.172;12.824;2024-03-08T04:17:20;39.25;;;13.00;;
3771;SDS011;1901;48.172;12.824;2024-03-08T04:19:46;37.08;;;13.85;;
3771;SDS011;1901;48.172;12.824;2024-03-08T04:22:12;42.42;;;14.75;;
3771;SDS011;1901;48.172;12.824;2024-03-08T04:24:37;44.42;;;15.10;;
3771;SDS011;1901;48.172;12.824;2024-03-08T04:27:05;37.47;;;13.00;;
3771;SDS011;1901;48.172;12.824;2024-03-08T04:29:30;36.80;;;14.93;;
3771;SDS011;1901;48.172;12.824;2024-03-08T04:31:55;40.38;;;14.00;;
3771;SDS011;1901;48.172;12.824;2024-03-08T04:34:21;35.75;;;12.13;;
3771;SDS011;1901;48.172;12.824;2024-03-08T04:36:46;45.28;;;16.48;;
3771;SDS011;1901;48.172;12.824;2024-03-08T04:39:11;33.40;;;13.30;;
3771;SDS011;1901;48.172;12.824;2024-03-08T04:41:38;47.03;;;15.35;;
3771;SDS011;1901;48.172;12.824;2024-03-08T04:44:03;33.42;;;12.27;;
3771;SDS011;1901;48.172;12.824;2024-03-08T04:46:28;37.17;;;12.73;;
3771;SDS011;1901;48.172;12.824;2024-03-08T04:48:53;31.17;;;11.93;;
3771;SDS011;1901;48.172;12.824;2024-03-08T04:51:18;38.78;;;13.13;;
3771;SDS011;1901;48.172;12.824;2024-03-08T04:53:44;36.88;;;13.07;;
3771;SDS011;1901;48.172;12.824;2024-03-08T04:56:10;32.05;;;12.98;;
3771;SDS011;1901;48.172;12.824;2024-03-08T04:58:35;37.90;;;13.57;;
3771;SDS011;1901;48.172;12.824;2024-03-08T05:01:01;39.78;;;13.85;;
3771;SDS011;1901;48.172;12.824;2024-03-08T05:03:26;47.78;;;14.95;;
3771;SDS011;1901;48.172;12.824;2024-03-08T05:05:53;42.08;;;13.60;;
3771;SDS011;1901;48.172;12.824;2024-03-08T05:08:18;23.92;;;9.88;;
3771;SDS011;1901;48.172;12.824;2024-03-08T05:10:44;38.40;;;13.75;;
3771;SDS011;1901;48.172;12.824;2024-03-08T05:13:09;45.83;;;13.82;;
3771;SDS011;1901;48.172;12.824;2024-03-08T05:15:34;42.07;;;15.47;;
3771;SDS011;1901;48.172;12.824;2024-03-08T05:18:00;34.67;;;11.70;;
3771;SDS011;1901;48.172;12.824;2024-03-08T05:20:25;44.20;;;15.87;;
3771;SDS011;1901;48.172;12.824;2024-03-08T05:22:51;42.88;;;14.07;;
3771;SDS011;1901;48.172;12.824;2024-03-08T05:25:16;46.95;;;15.00;;
3771;SDS011;1901;48.172;12.824;2024-03-08T05:27:42;44.75;;;14.23;;
3771;SDS011;1901;48.172;12.824;2024-03-08T05:30:07;30.20;;;12.57;;
3771;SDS011;1901;48.172;12.824;2024-03-08T05:32:38;35.13;;;14.05;;
3771;SDS011;1901;48.172;12.824;2024-03-08T05:35:03;49.47;;;15.25;;
3771;SDS011;1901;48.172;12.824;2024-03-08T05:37:32;29.10;;;11.57;;
3771;SDS011;1901;48.172;12.824;2024-03-08T05:39:57;38.63;;;14.00;;
3771;SDS011;1901;48.172;12.824;2024-03-08T05:42:22;30.67;;;12.27;;
3771;SDS011;1901;48.172;12.824;2024-03-08T05:44:47;42.37;;;15.73;;
3771;SDS011;1901;48.172;12.824;2024-03-08T05:47:12;33.30;;;13.60;;
3771;SDS011;1901;48.172;12.824;2024-03-08T05:49:38;42.90;;;14.35;;
3771;SDS011;1901;48.172;12.824;2024-03-08T05:52:04;36.28;;;14.05;;
3771;SDS011;1901;48.172;12.824;2024-03-08T05:54:29;40.80;;;15.15;;
3771;SDS011;1901;48.172;12.824;2024-03-08T05:56:54;39.07;;;14.17;;
3771;SDS011;1901;48.172;12.824;2024-03-08T05:59:20;39.33;;;13.88;;
3771;SDS011;1901;48.172;12.824;2024-03-08T06:01:45;36.03;;;14.17;;
3771;SDS011;1901;48.172;12.824;2024-03-08T06:04:11;44.15;;;15.32;;
3771;SDS011;1901;48.172;12.824;2024-03-08T06:06:37;37.85;;;14.70;;
3771;SDS011;1901;48.172;12.824;2024-03-08T06:09:02;37.45;;;14.18;;
3771;SDS011;1901;48.172;12.824;2024-03-08T06:11:34;33.08;;;13.88;;
3771;SDS011;1901;48.172;12.824;2024-03-08T06:13:59;40.70;;;14.67;;
3771;SDS011;1901;48.172;12.824;2024-03-08T06:16:27;28.73;;;12.30;;
3771;SDS011;1901;48.172;12.824;2024-03-08T06:18:56;37.90;;;13.10;;
3771;SDS011;1901;48.172;12.824;2024-03-08T06:21:22;37.17;;;14.13;;
3771;SDS011;1901;48.172;12.824;2024-03-08T06:23:47;37.50;;;13.00;;
3771;SDS011;1901;48.172;12.824;2024-03-08T06:26:13;38.50;;;12.27;;
3771;SDS011;1901;48.172;12.824;2024-03-08T06:28:38;42.28;;;14.30;;
3771;SDS011;1901;48.172;12.824;2024-03-08T06:31:03;41.17;;;13.60;;
3771;SDS011;1901;48.172;12.824;2024-03-08T06:33:29;36.40;;;13.60;;
3771;SDS011;1901;48.172;12.824;2024-03-08T06:35:54;36.97;;;12.55;;
3771;SDS011;1901;48.172;12.824;2024-03-08T06:38:22;43.70;;;13.70;;
3771;SDS011;1901;48.172;12.824;2024-03-08T06:40:47;25.20;;;10.35;;
3771;SDS011;1901;48.172;12.824;2024-03-08T06:43:13;36.72;;;12.95;;
3771;SDS011;1901;48.172;12.824;2024-03-08T06:45:40;33.08;;;12.70;;
3771;SDS011;1901;48.172;12.824;2024-03-08T06:48:06;31.90;;;11.47;;
3771;SDS011;1901;48.172;12.824;2024-03-08T06:50:34;29.25;;;11.32;;
3771;SDS011;1901;48.172;12.824;2024-03-08T06:53:01;22.65;;;10.52;;
3771;SDS011;1901;48.172;12.824;2024-03-08T06:55:26;29.03;;;12.20;;
3771;SDS011;1901;48.172;12.824;2024-03-08T06:57:51;27.40;;;10.63;;
3771;SDS011;1901;48.172;12.824;2024-03-08T07:00:16;30.00;;;12.02;;
3771;SDS011;1901;48.172;12.824;2024-03-08T07:02:44;28.30;;;11.45;;
3771;SDS011;1901;48.172;12.824;2024-03-08T07:05:10;28.30;;;11.57;;
3771;SDS011;1901;48.172;12.824;2024-03-08T07:07:36;24.27;;;10.70;;
3771;SDS011;1901;48.172;12.824;2024-03-08T07:10:02;24.35;;;10.73;;
3771;SDS011;1901;48.172;12.824;2024-03-08T07:12:27;29.92;;;12.05;;
3771;SDS011;1901;48.172;12.824;2024-03-08T07:14:52;28.88;;;12.00;;
3771;SDS011;1901;48.172;12.824;2024-03-08T07:17:18;22.17;;;9.77;;
3771;SDS011;1901;48.172;12.824;2024-03-08T07:19:43;27.70;;;10.97;;
3771;SDS011;1901;48.172;12.824;2024-03-08T07:22:08;25.10;;;11.00;;
3771;SDS011;1901;48.172;12.824;2024-03-08T07:24:36;30.80;;;11.77;;
3771;SDS011;1901;48.172;12.824;2024-03-08T07:27:01;23.67;;;10.70;;
3771;SDS011;1901;48.172;12.824;2024-03-08T07:29:27;25.70;;;10.80;;
3771;SDS011;1901;48.172;12.824;2024-03-08T07:31:53;28.45;;;11.65;;
3771;SDS011;1901;48.172;12.824;2024-03-08T07:34:36;24.45;;;11.05;;
3771;SDS011;1901;48.172;12.824;2024-03-08T07:37:01;23.25;;;10.10;;
3771;SDS011;1901;48.172;12.824;2024-03-08T07:39:26;29.50;;;11.30;;
3771;SDS011;1901;48.172;12.824;2024-03-08T07:41:51;23.67;;;9.80;;
3771;SDS011;1901;48.172;12.824;2024-03-08T07:44:20;23.13;;;9.68;;
3771;SDS011;1901;48.172;12.824;2024-03-08T07:46:45;22.00;;;9.73;;
3771;SDS011;1901;48.172;12.824;2024-03-08T07:49:10;25.43;;;10.57;;
3771;SDS011;1901;48.172;12.824;2024-03-08T07:51:37;23.35;;;9.98;;
3771;SDS011;1901;48.172;12.824;2024-03-08T07:54:02;22.60;;;10.70;;
3771;SDS011;1901;48.172;12.824;2024-03-08T07:56:29;25.20;;;11.85;;
3771;SDS011;1901;48.172;12.824;2024-03-08T07:58:54;26.23;;;10.40;;
3771;SDS011;1901;48.172;12.824;2024-03-08T08:01:19;23.73;;;9.17;;
3771;SDS011;1901;48.172;12.824;2024-03-08T08:03:45;22.77;;;10.27;;
3771;SDS011;1901;48.172;12.824;2024-03-08T08:06:11;22.67;;;9.48;;
3771;SDS011;1901;48.172;12.824;2024-03-08T08:08:41;22.00;;;9.18;;
3771;SDS011;1901;48.172;12.824;2024-03-08T08:11:06;23.17;;;10.23;;
3771;SDS011;1901;48.172;12.824;2024-03-08T08:13:31;26.00;;;10.97;;
3771;SDS011;1901;48.172;12.824;2024-03-08T08:15:57;22.10;;;9.15;;
3771;SDS011;1901;48.172;12.824;2024-03-08T08:18:22;20.52;;;8.07;;
3771;SDS011;1901;48.172;12.824;2024-03-08T08:20:50;24.88;;;10.77;;
3771;SDS011;1901;48.172;12.824;2024-03-08T08:23:15;28.30;;;10.43;;
3771;SDS011;1901;48.172;12.824;2024-03-08T08:25:40;18.73;;;7.03;;
3771;SDS011;1901;48.172;12.824;2024-03-08T08:28:05;20.73;;;9.17;;
3771;SDS011;1901;48.172;12.824;2024-03-08T08:30:30;16.98;;;8.45;;
3771;SDS011;1901;48.172;12.824;2024-03-08T08:32:57;23.13;;;9.98;;
3771;SDS011;1901;48.172;12.824;2024-03-08T08:35:25;22.33;;;8.45;;
3771;SDS011;1901;48.172;12.824;2024-03-08T08:37:51;24.63;;;8.90;;
3771;SDS011;1901;48.172;12.824;2024-03-08T08:40:16;25.75;;;10.38;;
3771;SDS011;1901;48.172;12.824;2024-03-08T08:42:42;20.67;;;9.20;;
3771;SDS011;1901;48.172;12.824;2024-03-08T08:45:08;20.70;;;9.63;;
3771;SDS011;1901;48.172;12.824;2024-03-08T08:47:34;15.70;;;7.80;;
3771;SDS011;1901;48.172;12.824;2024-03-08T08:49:59;20.58;;;10.38;;
3771;SDS011;1901;48.172;12.824;2024-03-08T08:52:25;23.42;;;9.70;;
3771;SDS011;1901;48.172;12.824;2024-03-08T08:54:51;21.07;;;9.27;;
3771;SDS011;1901;48.172;12.824;2024-03-08T08:57:16;20.63;;;8.60;;
3771;SDS011;1901;48.172;12.824;2024-03-08T08:59:41;20.37;;;9.40;;
3771;SDS011;1901;48.172;12.824;2024-03-08T09:02:06;23.85;;;9.73;;
3771;SDS011;1901;48.172;12.824;2024-03-08T09:04:32;18.30;;;8.82;;
3771;SDS011;1901;48.172;12.824;2024-03-08T09:06:57;17.75;;;8.40;;
3771;SDS011;1901;48.172;12.824;2024-03-08T09:09:22;25.77;;;11.60;;
3771;SDS011;1901;48.172;12.824;2024-03-08T09:11:47;34.40;;;14.50;;
3771;SDS011;1901;48.172;12.824;2024-03-08T09:14:14;18.30;;;7.90;;
3771;SDS011;1901;48.172;12.824;2024-03-08T09:16:39;21.05;;;9.88;;
3771;SDS011;1901;48.172;12.824;2024-03-08T09:19:04;23.40;;;10.35;;
3771;SDS011;1901;48.172;12.824;2024-03-08T09:21:31;14.43;;;7.05;;
3771;SDS011;1901;48.172;12.824;2024-03-08T09:23:57;18.53;;;9.10;;
3771;SDS011;1901;48.172;12.824;2024-03-08T09:26:23;31.63;;;13.90;;
3771;SDS011;1901;48.172;12.824;2024-03-08T09:28:48;19.70;;;8.67;;
3771;SDS011;1901;48.172;12.824;2024-03-08T09:31:14;16.60;;;8.45;;
3771;SDS011;1901;48.172;12.824;2024-03-08T09:33:40;17.83;;;7.90;;
3771;SDS011;1901;48.172;12.824;2024-03-08T09:36:07;18.02;;;8.18;;
3771;SDS011;1901;48.172;12.824;2024-03-08T09:38:32;17.33;;;8.05;;
3771;SDS011;1901;48.172;12.824;2024-03-08T09:40:59;17.88;;;8.63;;
3771;SDS011;1901;48.172;12.824;2024-03-08T09:43:26;14.98;;;7.72;;
3771;SDS011;1901;48.172;12.824;2024-03-08T09:45:51;17.88;;;8.55;;
3771;SDS011;1901;48.172;12.824;2024-03-08T09:48:17;18.15;;;8.40;;
3771;SDS011;1901;48.172;12.824;2024-03-08T09:50:44;19.65;;;10.07;;
3771;SDS011;1901;48.172;12.824;2024-03-08T09:53:09;19.20;;;9.13;;
3771;SDS011;1901;48.172;12.824;2024-03-08T09:55:36;16.30;;;7.82;;
3771;SDS011;1901;48.172;12.824;2024-03-08T09:58:02;19.47;;;8.43;;
3771;SDS011;1901;48.172;12.824;2024-03-08T10:00:45;19.08;;;8.70;;
3771;SDS011;1901;48.172;12.824;2024-03-08T10:03:10;18.00;;;8.67;;
3771;SDS011;1901;48.172;12.824;2024-03-08T10:05:36;15.85;;;8.77;;
3771;SDS011;1901;48.172;12.824;2024-03-08T10:08:01;13.82;;;7.30;;
3771;SDS011;1901;48.172;12.824;2024-03-08T10:10:26;17.30;;;7.70;;
3771;SDS011;1901;48.172;12.824;2024-03-08T10:12:52;18.47;;;9.37;;
3771;SDS011;1901;48.172;12.824;2024-03-08T10:15:17;19.15;;;9.45;;
3771;SDS011;1901;48.172;12.824;2024-03-08T10:17:42;14.55;;;7.97;;
3771;SDS011;1901;48.172;12.824;2024-03-08T10:20:18;18.73;;;8.65;;
3771;SDS011;1901;48.172;12.824;2024-03-08T10:22:43;17.00;;;8.38;;
3771;SDS011;1901;48.172;12.824;2024-03-08T10:25:12;15.90;;;7.57;;
3771;SDS011;1901;48.172;12.824;2024-03-08T10:27:41;13.48;;;7.57;;
3771;SDS011;1901;48.172;12.824;2024-03-08T10:30:08;13.45;;;7.38;;
3771;SDS011;1901;48.172;12.824;2024-03-08T10:32:35;13.32;;;6.97;;
3771;SDS011;1901;48.172;12.824;2024-03-08T10:35:00;16.40;;;8.20;;
3771;SDS011;1901;48.172;12.824;2024-03-08T10:37:25;13.77;;;7.70;;
3771;SDS011;1901;48.172;12.824;2024-03-08T10:39:57;17.33;;;8.70;;
3771;SDS011;1901;48.172;12.824;2024-03-08T10:42:27;13.40;;;7.05;;
3771;SDS011;1901;48.172;12.824;2024-03-08T10:44:55;14.50;;;7.63;;
3771;SDS011;1901;48.172;12.824;2024-03-08T10:47:29;12.05;;;6.60;;
3771;SDS011;1901;48.172;12.824;2024-03-08T10:49:59;15.23;;;7.70;;
3771;SDS011;1901;48.172;12.824;2024-03-08T10:52:29;14.80;;;7.35;;
3771;SDS011;1901;48.172;12.824;2024-03-08T10:54:54;11.73;;;5.90;;
3771;SDS011;1901;48.172;12.824;2024-03-08T10:57:20;19.27;;;7.38;;
3771;SDS011;1901;48.172;12.824;2024-03-08T10:59:47;13.75;;;6.72;;
3771;SDS011;1901;48.172;12.824;2024-03-08T11:02:14;14.95;;;6.05;;
3771;SDS011;1901;48.172;12.824;2024-03-08T11:04:45;13.88;;;6.43;;
3771;SDS011;1901;48.172;12.824;2024-03-08T11:07:10;16.48;;;7.03;;
3771;SDS011;1901;48.172;12.824;2024-03-08T11:09:42;14.27;;;7.05;;
3771;SDS011;1901;48.172;12.824;2024-03-08T11:12:25;16.25;;;7.90;;
3771;SDS011;1901;48.172;12.824;2024-03-08T11:14:52;15.00;;;7.47;;
3771;SDS011;1901;48.172;12.824;2024-03-08T11:17:21;14.57;;;7.43;;
3771;SDS011;1901;48.172;12.824;2024-03-08T11:19:50;11.07;;;6.75;;
3771;SDS011;1901;48.172;12.824;2024-03-08T11:22:20;13.45;;;7.10;;
3771;SDS011;1901;48.172;12.824;2024-03-08T11:24:48;15.13;;;7.95;;
3771;SDS011;1901;48.172;12.824;2024-03-08T11:27:13;14.43;;;7.13;;
3771;SDS011;1901;48.172;12.824;2024-03-08T11:29:39;15.75;;;6.45;;
3771;SDS011;1901;48.172;12.824;2024-03-08T11:32:14;17.33;;;9.07;;
3771;SDS011;1901;48.172;12.824;2024-03-08T11:34:40;15.30;;;7.72;;
3771;SDS011;1901;48.172;12.824;2024-03-08T11:37:14;13.98;;;7.45;;
3771;SDS011;1901;48.172;12.824;2024-03-08T11:39:41;15.23;;;8.20;;
3771;SDS011;1901;48.172;12.824;2024-03-08T11:42:11;15.23;;;8.02;;
3771;SDS011;1901;48.172;12.824;2024-03-08T11:44:36;13.90;;;7.22;;
3771;SDS011;1901;48.172;12.824;2024-03-08T11:47:01;17.27;;;7.23;;
3771;SDS011;1901;48.172;12.824;2024-03-08T11:49:26;16.60;;;7.70;;
3771;SDS011;1901;48.172;12.824;2024-03-08T11:51:52;16.23;;;7.90;;
3771;SDS011;1901;48.172;12.824;2024-03-08T11:54:21;14.85;;;8.10;;
3771;SDS011;1901;48.172;12.824;2024-03-08T11:56:46;17.07;;;7.67;;
3771;SDS011;1901;48.172;12.824;2024-03-08T11:59:14;17.33;;;7.55;;
3771;SDS011;1901;48.172;12.824;2024-03-08T12:01:39;17.73;;;7.72;;
3771;SDS011;1901;48.172;12.824;2024-03-08T12:04:05;16.17;;;7.50;;
3771;SDS011;1901;48.172;12.824;2024-03-08T12:06:37;13.85;;;7.40;;
3771;SDS011;1901;48.172;12.824;2024-03-08T12:09:09;16.92;;;8.25;;
3771;SDS011;1901;48.172;12.824;2024-03-08T12:11:35;12.77;;;6.25;;
3771;SDS011;1901;48.172;12.824;2024-03-08T12:14:00;13.35;;;6.75;;
3771;SDS011;1901;48.172;12.824;2024-03-08T12:16:26;14.85;;;7.32;;
3771;SDS011;1901;48.172;12.824;2024-03-08T12:18:52;17.20;;;7.47;;
3771;SDS011;1901;48.172;12.824;2024-03-08T12:21:18;13.48;;;6.97;;
3771;SDS011;1901;48.172;12.824;2024-03-08T12:23:46;14.48;;;7.13;;
3771;SDS011;1901;48.172;12.824;2024-03-08T12:26:16;14.43;;;7.15;;
3771;SDS011;1901;48.172;12.824;2024-03-08T12:28:42;11.75;;;6.03;;
3771;SDS011;1901;48.172;12.824;2024-03-08T12:31:09;14.02;;;6.53;;
3771;SDS011;1901;48.172;12.824;2024-03-08T12:33:37;14.40;;;7.65;;
3771;SDS011;1901;48.172;12.824;2024-03-08T12:36:02;15.63;;;7.25;;
3771;SDS011;1901;48.172;12.824;2024-03-08T12:38:32;15.13;;;6.68;;
3771;SDS011;1901;48.172;12.824;2024-03-08T12:41:00;13.57;;;7.57;;
3771;SDS011;1901;48.172;12.824;2024-03-08T12:43:25;13.52;;;7.65;;
3771;SDS011;1901;48.172;12.824;2024-03-08T12:45:51;14.77;;;7.35;;
3771;SDS011;1901;48.172;12.824;2024-03-08T12:48:16;14.40;;;7.43;;
3771;SDS011;1901;48.172;12.824;2024-03-08T12:50:41;14.50;;;6.90;;
3771;SDS011;1901;48.172;12.824;2024-03-08T12:53:12;14.43;;;6.80;;
3771;SDS011;1901;48.172;12.824;2024-03-08T12:55:38;12.07;;;5.82;;
3771;SDS011;1901;48.172;12.824;2024-03-08T12:58:03;14.53;;;7.27;;
3771;SDS011;1901;48.172;12.824;2024-03-08T13:00:34;15.43;;;6.38;;
3771;SDS011;1901;48.172;12.824;2024-03-08T13:03:01;13.65;;;6.50;;
3771;SDS011;1901;48.172;12.824;2024-03-08T13:05:27;15.57;;;7.78;;
3771;SDS011;1901;48.172;12.824;2024-03-08T13:07:52;28.52;;;14.15;;
3771;SDS011;1901;48.172;12.824;2024-03-08T13:10:18;17.10;;;7.47;;
3771;SDS011;1901;48.172;12.824;2024-03-08T13:12:45;14.95;;;7.47;;
3771;SDS011;1901;48.172;12.824;2024-03-08T13:15:10;17.73;;;7.43;;
3771;SDS011;1901;48.172;12.824;2024-03-08T13:17:45;39.30;;;19.05;;
3771;SDS011;1901;48.172;12.824;2024-03-08T13:20:11;20.92;;;11.27;;
3771;SDS011;1901;48.172;12.824;2024-03-08T13:22:41;15.43;;;7.38;;
3771;SDS011;1901;48.172;12.824;2024-03-08T13:25:06;23.53;;;9.73;;
3771;SDS011;1901;48.172;12.824;2024-03-08T13:27:32;13.70;;;7.10;;
3771;SDS011;1901;48.172;12.824;2024-03-08T13:29:57;12.63;;;5.67;;
3771;SDS011;1901;48.172;12.824;2024-03-08T13:32:22;11.70;;;6.10;;
3771;SDS011;1901;48.172;12.824;2024-03-08T13:34:52;15.48;;;7.78;;
3771;SDS011;1901;48.172;12.824;2024-03-08T13:37:25;13.25;;;5.75;;
3771;SDS011;1901;48.172;12.824;2024-03-08T13:39:52;17.58;;;7.68;;
3771;SDS011;1901;48.172;12.824;2024-03-08T13:42:18;14.10;;;6.88;;
3771;SDS011;1901;48.172;12.824;2024-03-08T13:44:45;11.30;;;6.20;;
3771;SDS011;1901;48.172;12.824;2024-03-08T13:47:13;9.07;;;5.03;;
3771;SDS011;1901;48.172;12.824;2024-03-08T13:49:38;12.07;;;5.00;;
3771;SDS011;1901;48.172;12.824;2024-03-08T13:52:04;11.95;;;5.53;;
3771;SDS011;1901;48.172;12.824;2024-03-08T13:54:32;12.85;;;6.43;;
3771;SDS011;1901;48.172;12.824;2024-03-08T13:57:06;13.63;;;6.03;;
3771;SDS011;1901;48.172;12.824;2024-03-08T13:59:32;11.77;;;5.88;;
3771;SDS011;1901;48.172;12.824;2024-03-08T14:01:58;12.05;;;5.50;;
3771;SDS011;1901;48.172;12.824;2024-03-08T14:04:24;10.60;;;5.20;;
3771;SDS011;1901;48.172;12.824;2024-03-08T14:06:51;11.23;;;6.63;;
3771;SDS011;1901;48.172;12.824;2024-03-08T14:09:21;12.32;;;5.97;;
3771;SDS011;1901;48.172;12.824;2024-03-08T14:11:49;16.67;;;8.27;;
3771;SDS011;1901;48.172;12.824;2024-03-08T14:14:14;11.48;;;5.38;;
3771;SDS011;1901;48.172;12.824;2024-03-08T14:16:40;10.20;;;4.97;;
3771;SDS011;1901;48.172;12.824;2024-03-08T14:19:05;9.25;;;5.43;;
3771;SDS011;1901;48.172;12.824;2024-03-08T14:21:31;13.00;;;6.13;;
3771;SDS011;1901;48.172;12.824;2024-03-08T14:23:56;11.55;;;5.22;;
3771;SDS011;1901;48.172;12.824;2024-03-08T14:26:21;11.60;;;5.53;;
3771;SDS011;1901;48.172;12.824;2024-03-08T14:28:46;13.90;;;6.70;;
3771;SDS011;1901;48.172;12.824;2024-03-08T14:31:12;12.97;;;5.80;;
3771;SDS011;1901;48.172;12.824;2024-03-08T14:33:37;10.93;;;5.23;;
3771;SDS011;1901;48.172;12.824;2024-03-08T14:36:02;12.00;;;6.22;;
3771;SDS011;1901;48.172;12.824;2024-03-08T14:38:28;10.43;;;5.57;;